Terneuzen, Netherlands
Current Conditions -  °F | °C
As of 9:25 PM on Thursday 23 Oct 2014 (Local Time) from EHFS Reporting Station
Overcast Overcast  
Wind Chill: 55°   Ceiling: 2800
Heat Index: 55°   Visibility: 6mi
Dew Point: 50°   Wind: 17mph
Humidity: 82%   Direction: 200°SSW
Pressure: 30.12"   Gusts: NA
Location:  51.34°N, 3.83°E
Report Text: EHFS 231925Z AUTO 20015KT 9999 FEW025/// OVC028/// 13/10 Q1020
Loading
Personal Weather Stations






























Interactive Weather Map
Tropical Storm Tracking
New forecast layout! Learn more

10-Day Weather Forecast

Advertisements
Track Severe Weather on mobile